マガダン の空港の天気 - METARとTAF

マガダン・ソコル空港 ( UHMM / GDX ) - ロシア マガダン
飛行場実況気象(Metar)
観測時間05/26 11:00 MAGT (05/26 00:00 UTC)
風向・風速南東 2m/s
視程10km以上
天気現象
全天の8割程度の雲 雲底高度 1250m
気温8℃
湿度53%
気圧1001hPa
METARUHMM 260000Z 13002MPS 9999 BKN041CB 08/M01 Q1001 R10/70D NOSIG RMK QFE736
過去の天気等 Google飛行場航空写真 Wunderground天気予報

過去48時間のMETAR

飛行場予報(TAF)
発表時間: 5/26 09:50 MAGT (5/25 22:50 UTC)
予報対象時間: 26日11時 MAGT ~ 27日17時 MAGT
風向・風速東南東 3m/s 瞬間風速 8m/s
視程10km以上
全天の8割程度の積乱雲 雲底高度 760m
26日11時 MAGT ~ 26日23時 MAGT に一時的に
風向・風速南西 3m/s 瞬間風速 8m/s
天気現象弱いしゅう雨
全天の4割程度の雲 雲底高度 340m
全天を覆う積乱雲 雲底高度 610m
26日23時 MAGT ~ 27日10時 MAGT に一時的に
視程500m
天気現象
全天を覆う雲 鉛直視程 90m
TAF UHMM 252250Z 2600/2706 11003G08MPS 9999 BKN025CB
TEMPO 2600/2612 23003G08MPS -SHRA SCT011 OVC020CB
TEMPO 2612/2623 0500 FG VV003